KGSH

Details ICAO KGSH
Name GOSHEN MUNI
Region United States
Timezone America/Indiana/Indianapolis (UTC-5.0)
Plans Departing 6
Arriving 6
Stats Elevation 827 ft / 252 m (AMSL)
Location 41.526901° -85.793022°
Runways 2
Magnetic Variation 5.310° W
Sunrise 2017-12-18 13:06:09 UTC / 2017-12-18 08:06:09 Local
Sunset 2017-12-18 22:16:21 UTC / 2017-12-18 17:16:21 Local
Advertisement - Login to hide

Runways

ID Width Length Bearing (true) Bearing (mag) Surface Threshold Offset Overrun Length
05 180 ft / 55 m 2,583 ft / 787 m 44.19° 49.50° Grass 0 ft / 0 m 0 ft / 0 m
09 75 ft / 23 m 4,988 ft / 1,520 m 89.28° 94.59° Asphalt 0 ft / 0 m 0 ft / 0 m
23 180 ft / 55 m 2,583 ft / 787 m 224.20° 229.51° Grass 0 ft / 0 m 0 ft / 0 m
27 75 ft / 23 m 4,988 ft / 1,520 m 269.29° 274.60° Asphalt 0 ft / 0 m 0 ft / 0 m

Map

Weather


0- 5 10 15 20 25 30 35+ Temperature / ° C

Clouds and Precipitation
Forecast for 2017-12-19 00:00 UTC. Updated 2 hours ago

Ground ~20,000 ft ~40,000 ft Winds

METAR

KGSH 182229Z AUTO 23011KT 9SM BKN016 BKN025 OVC031 07/05 A2989 RMK AO2 T00670050

TAF

Not found

Frequencies

Recorded 126.47 MHz ASOS
Clearance 125.25 MHz SOUTH BEND CLNC DEL
Unicom 123.05 MHz CTAF/UNICOM
Approach 132.05 MHz SOUTH BEND APP/DEP
Warning: Do not use this data for real-world aviation or navigation. No guarantee of current accuracy is given.